Time;durP1;ratioP1;P1;durP2;ratioP2;P2;SDS_P1;SDS_P2;PMS_P1;PMS_P2;Temp;Humidity;BMP_temperature;BMP_pressure;BME280_temperature;BME280_humidity;BME280_pressure;Samples;Min_cycle;Max_cycle;Signal;HPM_P1;HPM_P2
2022/08/04 00:00:14;;;;;;;1.27;1.17;;;24.60;70.90;;;;;;4991610;28;20395;-73
2022/08/04 00:02:49;;;;;;;1.48;1.35;;;24.60;70.90;;;;;;5007442;28;20564;-73
2022/08/04 00:05:46;;;;;;;1.50;1.40;;;24.60;70.90;;;;;;4991736;28;20566;-73
2022/08/04 00:08:29;;;;;;;1.33;1.23;;;24.60;70.90;;;;;;5008091;28;20285;-73
2022/08/04 00:10:58;;;;;;;1.50;1.40;;;24.70;71.10;;;;;;4991600;28;20173;-73
2022/08/04 00:13:29;;;;;;;1.35;1.25;;;24.60;71.00;;;;;;5007163;28;20176;-73
2022/08/04 00:16:05;;;;;;;1.02;1.02;;;24.60;71.00;;;;;;5008064;28;20174;-73
2022/08/04 00:18:50;;;;;;;1.60;1.50;;;24.70;71.00;;;;;;5008103;28;20204;-73
2022/08/04 00:21:22;;;;;;;1.38;1.27;;;24.60;71.00;;;;;;4991406;28;20677;-73
2022/08/04 00:23:51;;;;;;;1.67;1.58;;;24.60;71.00;;;;;;4990764;28;20192;-73
2022/08/04 00:26:17;;;;;;;1.38;1.27;;;24.60;71.00;;;;;;5007698;28;20177;-73
2022/08/04 00:28:43;;;;;;;1.35;1.25;;;24.60;70.90;;;;;;5007697;28;20228;-73
2022/08/04 00:31:13;;;;;;;1.40;1.30;;;24.60;71.00;;;;;;5007918;28;20284;-73
2022/08/04 00:33:43;;;;;;;1.50;1.40;;;24.60;71.00;;;;;;5007199;28;20192;-72
2022/08/04 00:36:12;;;;;;;1.17;1.10;;;24.60;71.00;;;;;;4991303;28;20189;-73
2022/08/04 00:38:41;;;;;;;1.30;1.25;;;24.60;71.00;;;;;;5007704;28;20185;-73
2022/08/04 00:42:07;;;;;;;1.30;1.20;;;24.60;71.00;;;;;;4991199;28;20216;-73
2022/08/04 00:45:06;;;;;;;1.35;1.25;;;24.60;71.00;;;;;;4991010;28;20185;-73
2022/08/04 00:48:00;;;;;;;1.70;1.60;;;24.60;71.00;;;;;;4991338;28;20216;-73
2022/08/04 00:51:12;;;;;;;1.63;1.52;;;24.60;71.00;;;;;;5007498;28;20222;-73
2022/08/04 00:54:08;;;;;;;1.70;1.60;;;24.60;71.00;;;;;;5007216;28;20653;-73
2022/08/04 00:57:26;;;;;;;1.40;1.30;;;24.60;71.10;;;;;;4995570;28;20220;-73
2022/08/04 01:00:21;;;;;;;1.17;1.13;;;24.60;71.00;;;;;;4994479;28;20293;-73
2022/08/04 01:03:17;;;;;;;1.40;1.30;;;24.50;70.90;;;;;;4981789;28;20263;-73
2022/08/04 01:06:17;;;;;;;1.25;1.20;;;24.50;70.90;;;;;;5010771;28;20243;-73
2022/08/04 01:09:25;;;;;;;1.35;1.25;;;24.50;70.90;;;;;;5010774;28;20188;-73
2022/08/04 01:12:40;;;;;;;1.40;1.30;;;24.60;71.00;;;;;;5010800;28;20256;-73
2022/08/04 01:15:50;;;;;;;1.27;1.17;;;24.50;70.90;;;;;;5010591;28;20220;-73
2022/08/04 01:18:34;;;;;;;1.33;1.23;;;24.50;71.00;;;;;;4960877;28;20239;-73
2022/08/04 01:21:28;;;;;;;1.50;1.40;;;24.50;71.10;;;;;;5010863;28;20259;-73
2022/08/04 01:24:21;;;;;;;1.52;1.42;;;24.50;71.00;;;;;;5009884;28;20193;-73
2022/08/04 01:27:15;;;;;;;2.42;1.50;;;24.50;71.00;;;;;;5010675;28;20248;-73
2022/08/04 01:29:57;;;;;;;1.50;1.40;;;24.50;71.00;;;;;;5010303;28;20235;-73
2022/08/04 01:32:52;;;;;;;1.55;1.45;;;24.50;71.10;;;;;;5010168;28;20204;-73
2022/08/04 01:35:34;;;;;;;1.50;1.40;;;24.50;71.00;;;;;;5010275;28;20283;-73
2022/08/04 01:38:08;;;;;;;1.33;1.23;;;24.50;71.00;;;;;;5010147;28;20207;-73
2022/08/04 01:40:37;;;;;;;1.40;1.13;;;24.50;71.00;;;;;;5010210;28;20197;-73
2022/08/04 01:43:04;;;;;;;1.35;1.27;;;24.60;71.10;;;;;;5009648;28;20216;-73
2022/08/04 01:45:30;;;;;;;1.30;1.20;;;24.50;71.10;;;;;;5010024;28;20570;-73
2022/08/04 01:47:57;;;;;;;1.60;1.50;;;24.50;71.00;;;;;;5010224;28;20296;-73
2022/08/04 01:50:26;;;;;;;1.58;1.48;;;24.50;71.00;;;;;;5009756;28;20198;-73
2022/08/04 01:52:54;;;;;;;1.42;1.33;;;24.50;71.00;;;;;;5009712;28;20193;-73
2022/08/04 01:55:20;;;;;;;1.13;1.10;;;24.50;70.90;;;;;;5009690;28;20227;-73
2022/08/04 01:57:51;;;;;;;1.38;1.27;;;24.50;71.00;;;;;;5008888;28;20296;-73
2022/08/04 02:00:22;;;;;;;1.48;1.33;;;24.50;71.00;;;;;;5009809;28;20251;-73
2022/08/04 02:02:50;;;;;;;1.30;1.25;;;24.50;71.00;;;;;;5009218;28;20208;-73
2022/08/04 02:05:19;;;;;;;1.50;1.40;;;24.50;71.00;;;;;;5006567;28;20209;-72
2022/08/04 02:08:12;;;;;;;1.58;1.38;;;24.50;71.00;;;;;;4973411;28;20205;-73
2022/08/04 02:10:41;;;;;;;1.50;1.40;;;24.50;71.00;;;;;;4990211;28;20181;-73
2022/08/04 02:13:24;;;;;;;1.25;1.15;;;24.50;71.00;;;;;;5005909;28;20193;-73
2022/08/04 02:16:23;;;;;;;1.27;1.27;;;24.50;71.00;;;;;;4989832;28;20626;-73
2022/08/04 02:19:27;;;;;;;1.38;1.27;;;24.50;70.90;;;;;;4973418;28;20599;-73
2022/08/04 02:22:06;;;;;;;1.60;1.50;;;24.50;71.00;;;;;;5006451;28;20213;-73
2022/08/04 02:24:48;;;;;;;1.85;1.42;;;24.50;71.00;;;;;;4973041;28;20173;-73
2022/08/04 02:27:18;;;;;;;2.10;1.30;;;24.50;71.00;;;;;;4989675;28;20209;-73
2022/08/04 02:29:55;;;;;;;1.60;1.50;;;24.50;71.00;;;;;;4989967;28;20177;-73
2022/08/04 02:32:28;;;;;;;1.50;1.40;;;24.50;70.90;;;;;;4989974;28;20227;-73
2022/08/04 02:35:06;;;;;;;1.50;1.40;;;24.40;70.80;;;;;;4973260;28;20189;-73
2022/08/04 02:37:33;;;;;;;2.35;1.20;;;24.50;71.00;;;;;;4973374;28;20256;-73
2022/08/04 02:40:05;;;;;;;1.33;1.27;;;24.40;71.00;;;;;;5004837;28;20189;-73
2022/08/04 02:42:33;;;;;;;1.50;1.40;;;24.50;71.00;;;;;;5008722;28;20216;-73
2022/08/04 02:45:00;;;;;;;1.60;1.50;;;24.50;71.00;;;;;;4976538;28;20267;-73
2022/08/04 02:47:28;;;;;;;1.10;1.10;;;24.40;71.00;;;;;;4992144;28;20201;-73
2022/08/04 02:49:56;;;;;;;1.60;1.50;;;24.40;70.90;;;;;;4992443;28;20197;-73
2022/08/04 02:52:24;;;;;;;1.38;1.20;;;24.50;71.10;;;;;;4992558;28;20192;-73
2022/08/04 02:54:58;;;;;;;1.45;1.13;;;24.40;70.90;;;;;;4992115;28;20188;-73
2022/08/04 02:57:29;;;;;;;2.78;1.20;;;24.40;70.90;;;;;;5008874;28;20231;-73
2022/08/04 03:00:16;;;;;;;1.30;1.15;;;24.50;71.00;;;;;;4992272;28;20232;-73
2022/08/04 03:03:04;;;;;;;1.40;1.30;;;24.40;70.90;;;;;;4992022;28;20304;-73
2022/08/04 03:06:27;;;;;;;1.38;1.23;;;24.40;70.90;;;;;;4976016;28;20177;-72
2022/08/04 03:09:11;;;;;;;1.40;1.30;;;24.40;71.00;;;;;;5130794;27;20541;-72
2022/08/04 03:12:05;;;;;;;1.40;1.30;;;24.40;70.80;;;;;;5112419;28;20583;-72
2022/08/04 03:14:56;;;;;;;1.02;0.98;;;24.40;70.90;;;;;;5112163;28;20177;-72
2022/08/04 03:17:59;;;;;;;1.30;1.20;;;24.40;70.90;;;;;;5130510;28;20213;-72
2022/08/04 03:20:39;;;;;;;1.48;1.38;;;24.40;70.80;;;;;;5129544;28;20171;-72
2022/08/04 03:23:33;;;;;;;1.35;1.30;;;24.40;70.90;;;;;;5111639;28;20203;-72
2022/08/04 03:26:49;;;;;;;1.50;1.40;;;24.40;70.80;;;;;;5130467;28;20229;-72
2022/08/04 03:29:57;;;;;;;1.50;1.40;;;24.40;70.90;;;;;;5129590;28;20188;-72
2022/08/04 03:32:50;;;;;;;1.33;1.23;;;24.40;70.90;;;;;;5112479;28;20650;-72
2022/08/04 03:35:47;;;;;;;1.40;1.30;;;24.40;70.80;;;;;;5112043;28;20266;-72
2022/08/04 03:39:08;;;;;;;1.23;1.17;;;24.40;70.80;;;;;;5129095;28;20211;-72
2022/08/04 03:41:54;;;;;;;1.50;1.40;;;24.40;70.90;;;;;;5112095;28;20186;-72
2022/08/04 03:44:54;;;;;;;1.50;1.40;;;24.40;71.80;;;;;;5129582;28;20632;-72
2022/08/04 03:48:04;;;;;;;1.40;1.30;;;24.40;70.90;;;;;;5111529;28;20697;-72
2022/08/04 03:54:03;;;;;;;1.40;1.30;;;24.40;70.90;;;;;;5129355;28;20175;-72
2022/08/04 03:57:12;;;;;;;1.42;1.33;;;24.40;70.80;;;;;;5128525;28;20230;-72
2022/08/04 04:00:20;;;;;;;1.20;1.10;;;24.40;70.90;;;;;;5111444;28;20206;-72
2022/08/04 04:03:01;;;;;;;1.50;1.40;;;24.40;70.90;;;;;;5093981;28;20172;-72
2022/08/04 04:05:46;;;;;;;1.38;1.30;;;24.40;71.60;;;;;;5128644;28;20183;-72
2022/08/04 04:08:58;;;;;;;1.50;1.40;;;24.40;71.70;;;;;;5129647;28;20206;-72
2022/08/04 04:12:03;;;;;;;1.20;1.20;;;24.40;71.00;;;;;;5128675;28;20195;-72
2022/08/04 04:15:39;;;;;;;2.53;1.40;;;24.40;70.90;;;;;;5127867;28;20180;-72
2022/08/04 04:18:49;;;;;;;1.58;1.48;;;24.40;70.90;;;;;;5081834;28;20215;-72
2022/08/04 04:21:52;;;;;;;1.55;1.40;;;24.40;70.80;;;;;;5027598;28;20652;-72
2022/08/04 04:24:48;;;;;;;1.35;1.25;;;24.40;70.80;;;;;;5114566;28;20200;-72
2022/08/04 04:28:06;;;;;;;1.00;1.00;;;24.40;70.90;;;;;;5097425;28;20261;-72
2022/08/04 04:30:56;;;;;;;1.50;1.40;;;24.40;70.90;;;;;;5097342;28;20173;-72
2022/08/04 04:33:53;;;;;;;1.20;1.10;;;24.40;70.90;;;;;;5079907;28;20184;-72
2022/08/04 04:36:31;;;;;;;1.00;1.00;;;24.30;70.80;;;;;;5097094;28;20279;-72
2022/08/04 04:39:19;;;;;;;1.20;1.20;;;24.40;70.90;;;;;;5080171;28;20179;-72
2022/08/04 04:42:30;;;;;;;1.58;1.48;;;24.30;70.90;;;;;;5114199;28;20194;-72
2022/08/04 04:45:22;;;;;;;1.20;1.10;;;24.30;70.80;;;;;;5096874;28;20188;-72
2022/08/04 04:48:28;;;;;;;1.35;1.17;;;24.40;70.80;;;;;;5097105;28;20239;-72
2022/08/04 04:51:25;;;;;;;1.40;1.30;;;24.30;70.80;;;;;;5096990;28;20192;-72
2022/08/04 04:54:33;;;;;;;1.40;1.30;;;24.40;71.00;;;;;;5096731;28;20207;-72
2022/08/04 04:57:10;;;;;;;1.25;1.15;;;24.40;70.90;;;;;;5063306;28;20208;-72
2022/08/04 05:00:02;;;;;;;1.33;1.25;;;24.30;70.80;;;;;;5096841;28;20176;-72
2022/08/04 05:02:46;;;;;;;1.50;1.40;;;24.30;70.80;;;;;;5096208;28;20196;-72
2022/08/04 05:05:30;;;;;;;1.30;1.20;;;24.30;70.90;;;;;;5097058;28;20192;-72
2022/08/04 05:08:41;;;;;;;1.40;1.30;;;24.40;71.00;;;;;;5096581;28;20216;-72
2022/08/04 05:11:40;;;;;;;1.17;1.17;;;24.30;70.80;;;;;;5096577;28;20182;-72
2022/08/04 05:14:10;;;;;;;1.48;1.38;;;24.30;70.80;;;;;;5114292;28;20172;-72
2022/08/04 05:16:53;;;;;;;1.45;1.35;;;24.30;70.90;;;;;;5114574;28;20226;-72
2022/08/04 05:19:41;;;;;;;1.20;1.20;;;24.30;70.90;;;;;;5096712;28;20181;-72
2022/08/04 05:22:35;;;;;;;1.50;1.40;;;24.30;70.80;;;;;;5114868;28;20217;-72
2022/08/04 05:25:15;;;;;;;1.77;1.67;;;24.30;70.80;;;;;;5095852;28;20179;-72
2022/08/04 05:28:01;;;;;;;1.23;1.13;;;24.30;70.80;;;;;;5113340;28;20215;-72
2022/08/04 05:30:32;;;;;;;1.60;1.50;;;24.30;71.00;;;;;;5095769;28;20183;-72
2022/08/04 05:33:05;;;;;;;1.73;1.63;;;24.30;70.90;;;;;;5113869;28;20336;-72
2022/08/04 05:35:45;;;;;;;1.52;1.42;;;24.30;71.00;;;;;;5114778;28;20169;-73
2022/08/04 05:38:21;;;;;;;1.20;1.13;;;24.30;71.00;;;;;;5096312;28;20208;-73
2022/08/04 05:40:49;;;;;;;1.50;1.40;;;24.30;71.00;;;;;;5116053;28;20167;-72
2022/08/04 05:43:17;;;;;;;1.60;1.50;;;24.30;70.90;;;;;;5116831;28;20192;-73
2022/08/04 05:45:47;;;;;;;1.10;1.10;;;24.30;71.00;;;;;;5079312;28;20195;-71
2022/08/04 05:48:13;;;;;;;1.45;1.35;;;24.30;70.90;;;;;;5095800;28;20226;-71
2022/08/04 05:50:39;;;;;;;1.50;1.40;;;24.30;71.00;;;;;;5112641;28;20219;-71
2022/08/04 05:53:09;;;;;;;1.50;1.33;;;24.30;71.00;;;;;;5095292;28;20196;-71
2022/08/04 05:55:35;;;;;;;1.67;1.58;;;24.30;71.00;;;;;;5114076;28;20164;-71
2022/08/04 05:58:02;;;;;;;1.73;1.63;;;24.30;71.10;;;;;;5095930;28;20200;-71
2022/08/04 06:00:29;;;;;;;1.63;1.40;;;24.30;71.30;;;;;;5095948;28;20180;-71
2022/08/04 06:02:58;;;;;;;1.55;1.45;;;24.30;71.30;;;;;;5113251;28;20176;-71
2022/08/04 06:05:25;;;;;;;1.80;1.70;;;24.30;71.30;;;;;;5095568;28;20176;-71
2022/08/04 06:07:51;;;;;;;2.63;1.77;;;24.30;71.40;;;;;;5087930;28;20593;-71
2022/08/04 06:10:17;;;;;;;2.13;1.70;;;24.30;71.40;;;;;;5095615;28;20192;-70
2022/08/04 06:12:55;;;;;;;2.45;1.40;;;24.30;71.50;;;;;;5058405;28;20185;-70
2022/08/04 06:15:24;;;;;;;1.70;1.60;;;24.30;71.60;;;;;;5075202;28;20193;-71
2022/08/04 06:18:00;;;;;;;1.52;1.35;;;24.30;71.60;;;;;;5113226;28;20204;-70
2022/08/04 06:20:33;;;;;;;1.50;1.40;;;24.30;71.60;;;;;;5082098;28;20189;-70
2022/08/04 06:23:08;;;;;;;1.75;1.65;;;24.30;71.60;;;;;;5083001;28;20272;-70
2022/08/04 06:25:43;;;;;;;1.67;1.58;;;24.30;71.60;;;;;;5092008;28;20565;-71
2022/08/04 06:28:10;;;;;;;1.88;1.77;;;24.30;71.60;;;;;;5103542;28;20216;-72
2022/08/04 06:30:39;;;;;;;2.10;1.52;;;24.30;71.90;;;;;;5075376;28;20313;-71
2022/08/04 06:33:25;;;;;;;1.70;1.60;;;24.30;72.80;;;;;;5076120;28;20187;-71
2022/08/04 06:35:55;;;;;;;2.63;1.80;;;24.30;72.00;;;;;;5092915;28;20209;-71
2022/08/04 06:38:27;;;;;;;2.13;2.00;;;24.30;72.30;;;;;;5101336;28;20209;-71
2022/08/04 06:40:57;;;;;;;1.67;1.58;;;24.30;73.30;;;;;;5087843;28;20191;-70
2022/08/04 06:43:25;;;;;;;2.42;1.65;;;24.30;72.90;;;;;;5094024;28;20199;-70
2022/08/04 06:45:54;;;;;;;1.80;1.70;;;24.30;72.90;;;;;;5093305;28;20176;-70
2022/08/04 06:48:22;;;;;;;1.80;1.70;;;24.30;73.00;;;;;;5074454;28;20761;-70
2022/08/04 06:50:50;;;;;;;1.73;1.63;;;24.30;73.40;;;;;;5074267;28;20185;-70
2022/08/04 06:53:17;;;;;;;1.73;1.63;;;24.40;73.40;;;;;;5090651;28;20180;-70
2022/08/04 06:55:46;;;;;;;1.80;1.70;;;24.30;73.10;;;;;;5090973;28;20188;-71
2022/08/04 06:58:13;;;;;;;2.00;1.83;;;24.30;73.50;;;;;;5092615;28;20196;-70
2022/08/04 07:00:43;;;;;;;2.35;1.90;;;24.30;73.00;;;;;;5078163;28;20620;-71
2022/08/04 07:03:10;;;;;;;1.70;1.50;;;24.40;74.00;;;;;;5070413;28;20188;-70
2022/08/04 07:05:37;;;;;;;1.70;1.60;;;24.30;73.00;;;;;;5057978;28;20238;-70
2022/08/04 07:08:04;;;;;;;1.80;1.70;;;24.40;72.90;;;;;;5073958;28;20237;-72
2022/08/04 07:10:30;;;;;;;2.00;1.80;;;24.30;73.00;;;;;;5095086;28;20188;-71
2022/08/04 07:12:59;;;;;;;1.80;1.70;;;24.30;73.00;;;;;;5111501;28;20260;-71
2022/08/04 07:15:26;;;;;;;1.83;1.67;;;24.30;72.80;;;;;;5094315;28;20221;-71
2022/08/04 07:17:58;;;;;;;1.70;1.60;;;24.40;73.00;;;;;;5094290;28;20237;-71
2022/08/04 07:20:25;;;;;;;1.70;1.60;;;24.30;72.80;;;;;;5094175;28;20184;-72
2022/08/04 07:22:52;;;;;;;2.42;2.25;;;24.30;73.00;;;;;;5094646;28;20225;-71
2022/08/04 07:25:19;;;;;;;2.03;1.80;;;24.30;73.00;;;;;;5110783;28;20184;-69
2022/08/04 07:27:45;;;;;;;1.77;1.67;;;24.30;73.00;;;;;;5077223;28;20641;-71
2022/08/04 07:30:11;;;;;;;1.77;1.67;;;24.40;73.20;;;;;;5094309;28;20184;-70
2022/08/04 07:32:40;;;;;;;2.35;1.77;;;24.40;73.10;;;;;;5077358;28;20184;-70
2022/08/04 07:35:08;;;;;;;2.25;1.77;;;24.40;73.20;;;;;;5076867;28;20229;-71
2022/08/04 07:37:34;;;;;;;1.73;1.63;;;24.40;72.90;;;;;;5093896;28;20204;-71
2022/08/04 07:40:00;;;;;;;1.83;1.70;;;24.40;72.90;;;;;;5111109;28;20184;-70
2022/08/04 07:42:27;;;;;;;2.20;1.70;;;24.40;72.70;;;;;;5077384;28;20184;-70
2022/08/04 07:44:53;;;;;;;1.95;1.75;;;24.40;72.60;;;;;;5094097;28;20189;-70
2022/08/04 07:47:19;;;;;;;1.80;1.70;;;24.40;72.60;;;;;;5093951;28;20214;-71
2022/08/04 07:49:44;;;;;;;3.47;1.90;;;24.40;72.60;;;;;;5094064;28;20188;-71
2022/08/04 07:52:12;;;;;;;2.05;1.90;;;24.40;72.80;;;;;;5112551;28;20181;-71
2022/08/04 07:54:39;;;;;;;2.20;2.00;;;24.40;72.70;;;;;;5095450;28;20180;-71
2022/08/04 07:57:05;;;;;;;1.90;1.80;;;24.40;72.60;;;;;;5112774;28;20295;-69
2022/08/04 07:59:32;;;;;;;2.00;1.67;;;24.40;72.60;;;;;;5098048;28;20180;-71
2022/08/04 08:02:00;;;;;;;2.28;2.08;;;24.40;72.30;;;;;;5116161;28;20176;-71
2022/08/04 08:04:27;;;;;;;2.72;1.98;;;24.40;72.40;;;;;;5114371;28;20188;-71
2022/08/04 08:06:53;;;;;;;1.67;1.58;;;24.40;72.40;;;;;;5097809;28;20203;-71
2022/08/04 08:09:22;;;;;;;3.17;1.83;;;24.40;72.40;;;;;;5098168;28;20181;-72
2022/08/04 08:11:52;;;;;;;1.90;1.80;;;24.40;72.20;;;;;;5116101;28;20173;-72
2022/08/04 08:14:19;;;;;;;1.98;1.88;;;24.40;72.00;;;;;;5115426;28;20177;-71
2022/08/04 08:16:45;;;;;;;2.35;2.15;;;24.40;72.10;;;;;;5080893;28;20609;-71
2022/08/04 08:19:13;;;;;;;2.20;2.00;;;24.40;72.00;;;;;;5115783;28;20180;-71
2022/08/04 08:21:39;;;;;;;2.03;1.83;;;24.40;72.10;;;;;;5115778;28;20180;-71
2022/08/04 08:24:05;;;;;;;1.85;1.75;;;24.40;72.10;;;;;;5097146;28;20256;-71
2022/08/04 08:26:32;;;;;;;2.00;1.90;;;24.40;72.10;;;;;;5114220;28;20203;-71
2022/08/04 08:28:58;;;;;;;2.72;2.08;;;24.40;72.10;;;;;;5114354;28;20279;-71
2022/08/04 08:31:24;;;;;;;2.20;2.00;;;24.40;72.00;;;;;;5115509;28;20638;-71
2022/08/04 08:33:51;;;;;;;2.15;2.05;;;24.40;72.00;;;;;;5115300;28;20659;-70
2022/08/04 08:36:45;;;;;;;1.92;1.83;;;24.50;71.90;;;;;;5079832;28;20180;-72
2022/08/04 08:39:24;;;;;;;1.90;1.80;;;24.50;71.90;;;;;;5114226;28;20634;-71
2022/08/04 08:42:27;;;;;;;2.03;1.92;;;24.50;72.10;;;;;;5115337;28;20176;-70
2022/08/04 08:45:32;;;;;;;1.60;1.50;;;24.50;71.90;;;;;;5096545;28;20174;-71
2022/08/04 08:48:47;;;;;;;2.00;1.83;;;24.50;72.00;;;;;;5096895;28;20223;-71
2022/08/04 08:52:02;;;;;;;1.75;1.65;;;24.50;72.00;;;;;;5114817;28;20263;-70
2022/08/04 08:54:53;;;;;;;2.30;2.00;;;24.50;72.00;;;;;;5096184;28;20195;-71
2022/08/04 08:58:00;;;;;;;2.08;1.92;;;24.50;72.10;;;;;;5113747;28;20210;-71
2022/08/04 09:00:46;;;;;;;1.83;1.73;;;24.50;72.10;;;;;;5097071;28;20195;-71
2022/08/04 09:03:55;;;;;;;2.20;2.00;;;24.50;71.90;;;;;;5096209;28;20165;-70
2022/08/04 09:07:05;;;;;;;2.17;1.98;;;24.50;71.80;;;;;;5113379;28;20712;-71
2022/08/04 09:09:43;;;;;;;2.10;1.98;;;24.50;71.80;;;;;;5076084;28;20208;-71
2022/08/04 09:12:32;;;;;;;2.17;2.00;;;24.60;71.90;;;;;;5097736;28;20210;-71
2022/08/04 09:15:25;;;;;;;2.05;1.95;;;24.50;71.80;;;;;;5104917;28;20228;-72
2022/08/04 09:18:22;;;;;;;2.13;1.95;;;24.50;71.80;;;;;;5096734;28;20253;-72
2022/08/04 09:20:59;;;;;;;2.13;1.92;;;24.60;71.70;;;;;;5090076;28;20191;-71
2022/08/04 09:23:42;;;;;;;2.00;1.90;;;24.50;71.80;;;;;;5095982;28;20179;-70
2022/08/04 09:26:26;;;;;;;1.70;1.60;;;24.60;71.90;;;;;;5114596;28;20168;-71
2022/08/04 09:29:29;;;;;;;2.20;2.00;;;24.60;71.90;;;;;;5113588;28;20203;-71
2022/08/04 09:32:22;;;;;;;2.05;1.95;;;24.60;71.90;;;;;;5100049;28;20286;-72
2022/08/04 09:35:25;;;;;;;2.00;1.90;;;24.60;71.80;;;;;;5096105;28;20213;-71
2022/08/04 09:38:25;;;;;;;1.98;1.88;;;24.60;71.60;;;;;;5096223;28;20341;-72
2022/08/04 09:41:05;;;;;;;1.83;1.73;;;24.60;71.70;;;;;;5095692;28;20188;-72
2022/08/04 09:43:53;;;;;;;2.30;1.88;;;24.60;71.60;;;;;;5095284;28;20176;-71
2022/08/04 09:46:24;;;;;;;1.73;1.63;;;24.60;71.60;;;;;;5114054;28;20179;-72
2022/08/04 09:49:03;;;;;;;1.98;1.80;;;24.60;71.50;;;;;;5113224;28;20207;-71
2022/08/04 09:51:52;;;;;;;2.08;1.88;;;24.60;71.50;;;;;;5114101;28;20176;-72
2022/08/04 09:54:50;;;;;;;1.80;1.70;;;24.60;71.50;;;;;;5112261;28;20293;-72
2022/08/04 09:57:54;;;;;;;1.98;1.88;;;24.60;71.60;;;;;;5095645;28;20212;-71
2022/08/04 10:00:28;;;;;;;2.17;1.85;;;24.60;71.60;;;;;;5096018;28;20220;-72
2022/08/04 10:02:59;;;;;;;2.10;1.90;;;24.60;71.20;;;;;;5095426;28;20191;-72
2022/08/04 10:06:06;;;;;;;2.00;1.90;;;24.60;71.30;;;;;;5110204;28;20259;-72
2022/08/04 10:09:10;;;;;;;2.10;2.00;;;24.60;71.40;;;;;;5075637;28;20276;-72
2022/08/04 10:12:02;;;;;;;2.10;2.00;;;24.70;71.60;;;;;;5110042;28;20214;-71
2022/08/04 10:15:25;;;;;;;2.85;1.75;;;24.60;71.40;;;;;;5092425;28;20192;-72
2022/08/04 10:18:03;;;;;;;2.03;1.92;;;24.70;71.40;;;;;;5027477;28;20215;-72
2022/08/04 10:21:20;;;;;;;2.05;1.95;;;24.60;71.50;;;;;;5068540;28;20192;-71
2022/08/04 10:24:24;;;;;;;2.10;2.00;;;24.70;71.40;;;;;;5092588;28;20184;-72
2022/08/04 10:27:31;;;;;;;2.13;1.85;;;24.70;71.40;;;;;;5109803;28;20203;-72
2022/08/04 10:30:12;;;;;;;1.73;1.60;;;24.70;71.50;;;;;;5093132;28;20191;-72
2022/08/04 10:33:17;;;;;;;1.90;1.80;;;24.70;71.40;;;;;;5092433;28;20310;-71
2022/08/04 10:36:03;;;;;;;1.65;1.50;;;24.70;71.10;;;;;;5094701;28;20213;-71
2022/08/04 10:38:55;;;;;;;2.17;2.00;;;24.70;72.20;;;;;;5095078;28;20214;-72
2022/08/04 10:41:52;;;;;;;2.17;1.98;;;24.70;71.30;;;;;;5094977;28;20655;-71
2022/08/04 10:44:42;;;;;;;2.03;1.92;;;24.70;71.40;;;;;;5077897;28;20263;-70
2022/08/04 10:47:18;;;;;;;2.20;2.05;;;24.70;71.10;;;;;;5110789;28;20298;-71
2022/08/04 10:49:53;;;;;;;1.75;1.65;;;24.70;71.10;;;;;;5110604;28;20191;-70
2022/08/04 10:52:26;;;;;;;1.90;1.80;;;24.70;71.20;;;;;;5092416;28;20185;-70
2022/08/04 10:55:07;;;;;;;1.92;1.73;;;24.70;71.20;;;;;;5074699;28;20718;-71
2022/08/04 10:57:51;;;;;;;2.00;1.90;;;24.70;71.30;;;;;;5108799;28;20236;-71
2022/08/04 11:00:30;;;;;;;1.90;1.80;;;24.70;71.40;;;;;;5111099;28;20221;-71
2022/08/04 11:03:19;;;;;;;1.80;1.70;;;24.70;71.30;;;;;;5112142;28;20270;-71
2022/08/04 11:05:58;;;;;;;2.05;1.85;;;24.70;71.30;;;;;;5093670;28;20216;-70
2022/08/04 11:08:35;;;;;;;1.80;1.70;;;24.70;71.60;;;;;;5094395;28;20219;-70
2022/08/04 11:11:30;;;;;;;1.92;1.83;;;24.70;71.60;;;;;;5112711;28;20183;-71
2022/08/04 11:14:06;;;;;;;2.00;1.90;;;24.70;71.70;;;;;;5077532;28;20176;-70
2022/08/04 11:16:50;;;;;;;2.00;1.90;;;24.70;71.70;;;;;;5094711;28;20203;-70
2022/08/04 11:19:47;;;;;;;2.13;1.95;;;24.70;71.70;;;;;;5094910;28;20196;-71
2022/08/04 11:22:21;;;;;;;2.13;2.03;;;24.70;71.70;;;;;;5094588;28;20187;-71
2022/08/04 11:25:08;;;;;;;2.05;1.88;;;24.70;71.50;;;;;;5094053;28;20167;-70
2022/08/04 11:28:01;;;;;;;2.55;2.25;;;24.70;71.50;;;;;;5077352;28;20212;-71
2022/08/04 11:30:42;;;;;;;1.98;1.88;;;24.80;71.80;;;;;;5097719;28;20168;-71
2022/08/04 11:33:30;;;;;;;1.88;1.77;;;24.80;71.70;;;;;;5116544;28;20731;-70
2022/08/04 11:36:02;;;;;;;2.22;1.83;;;24.80;71.60;;;;;;5080373;28;20184;-70
2022/08/04 11:38:58;;;;;;;2.33;2.20;;;24.80;71.40;;;;;;5081501;28;20295;-71
2022/08/04 11:42:15;;;;;;;1.92;1.83;;;24.80;71.40;;;;;;5098382;28;20188;-71
2022/08/04 11:45:00;;;;;;;2.10;2.00;;;24.80;72.30;;;;;;5065218;28;20325;-71
2022/08/04 11:47:48;;;;;;;1.90;1.80;;;24.80;71.80;;;;;;5091934;28;20225;-71
2022/08/04 11:50:37;;;;;;;2.00;1.90;;;24.80;71.70;;;;;;5097766;28;20188;-71
2022/08/04 11:53:05;;;;;;;1.98;1.88;;;24.80;71.60;;;;;;5097910;28;20318;-71
2022/08/04 11:55:33;;;;;;;2.47;2.10;;;24.80;71.70;;;;;;5113901;28;20180;-70
2022/08/04 11:57:59;;;;;;;2.22;2.03;;;24.80;71.70;;;;;;5080857;28;20212;-70
2022/08/04 12:00:29;;;;;;;2.42;2.17;;;24.80;71.70;;;;;;5097691;28;20544;-71
2022/08/04 12:03:11;;;;;;;2.40;2.20;;;24.80;71.70;;;;;;5116435;28;20620;-71
2022/08/04 12:05:56;;;;;;;1.83;1.73;;;24.80;71.50;;;;;;5115521;28;20523;-71
2022/08/04 12:08:49;;;;;;;2.28;2.08;;;24.80;71.60;;;;;;5113460;28;20208;-70
2022/08/04 12:11:26;;;;;;;2.30;1.90;;;24.80;71.30;;;;;;5097990;28;20235;-70
2022/08/04 12:14:20;;;;;;;1.88;1.77;;;24.80;71.40;;;;;;5115420;28;20187;-70
2022/08/04 12:17:01;;;;;;;2.15;1.95;;;24.80;71.40;;;;;;5097633;28;20208;-70
2022/08/04 12:19:32;;;;;;;2.10;2.00;;;24.80;71.30;;;;;;5098123;28;20187;-70
2022/08/04 12:22:07;;;;;;;2.28;2.17;;;24.90;71.50;;;;;;5114686;28;20172;-70
2022/08/04 12:25:00;;;;;;;2.22;2.03;;;24.80;71.10;;;;;;5097384;28;20243;-70
2022/08/04 12:28:04;;;;;;;2.47;1.77;;;24.90;71.20;;;;;;5115526;28;20200;-70
2022/08/04 12:30:50;;;;;;;2.40;2.20;;;24.80;71.00;;;;;;5115621;28;20210;-70
2022/08/04 12:33:18;;;;;;;2.42;2.22;;;24.80;71.30;;;;;;5114833;28;20244;-70
2022/08/04 12:35:57;;;;;;;2.30;2.20;;;24.80;71.30;;;;;;5096835;28;20663;-71
2022/08/04 12:38:27;;;;;;;2.10;2.00;;;24.90;71.20;;;;;;5097339;28;20199;-71
2022/08/04 12:41:01;;;;;;;2.10;2.00;;;24.80;71.20;;;;;;5114869;28;20517;-71
2022/08/04 12:43:45;;;;;;;2.58;2.25;;;24.90;71.20;;;;;;5097248;28;20172;-70
2022/08/04 12:46:23;;;;;;;2.33;2.13;;;24.80;71.00;;;;;;5097310;28;20184;-70
2022/08/04 12:48:50;;;;;;;2.17;2.00;;;24.90;71.10;;;;;;5097201;28;20196;-71
2022/08/04 12:51:17;;;;;;;2.20;2.10;;;24.80;70.90;;;;;;5097021;28;20191;-71
2022/08/04 12:53:44;;;;;;;2.40;2.20;;;24.90;71.00;;;;;;5079536;28;20661;-71
2022/08/04 12:56:13;;;;;;;2.13;2.03;;;24.80;71.00;;;;;;5096885;28;20180;-70
2022/08/04 12:58:59;;;;;;;2.33;2.13;;;24.80;71.20;;;;;;5097448;28;20184;-71
2022/08/04 13:01:27;;;;;;;2.35;2.15;;;24.90;71.10;;;;;;5096897;28;20168;-70
2022/08/04 13:04:17;;;;;;;2.20;2.10;;;24.90;71.00;;;;;;5096322;28;20176;-70
2022/08/04 13:06:56;;;;;;;2.17;2.08;;;24.90;71.00;;;;;;5079951;28;20294;-70
2022/08/04 13:09:30;;;;;;;2.00;1.90;;;24.90;70.80;;;;;;5078528;28;20241;-71
2022/08/04 13:12:02;;;;;;;2.40;2.20;;;24.90;71.00;;;;;;5096716;28;20172;-70
2022/08/04 13:14:34;;;;;;;2.50;2.30;;;24.90;71.00;;;;;;5114559;28;20164;-70
2022/08/04 13:17:01;;;;;;;2.38;2.25;;;24.90;70.80;;;;;;5114479;28;20207;-70
2022/08/04 13:19:29;;;;;;;2.42;2.22;;;24.90;70.70;;;;;;5096406;28;20184;-70
2022/08/04 13:21:58;;;;;;;2.35;2.15;;;24.90;71.00;;;;;;5079667;28;20188;-70
2022/08/04 13:24:28;;;;;;;2.75;2.25;;;24.90;70.90;;;;;;5095918;28;20188;-70
2022/08/04 13:27:08;;;;;;;2.40;2.15;;;24.90;71.00;;;;;;5096567;28;20207;-70
2022/08/04 13:29:38;;;;;;;2.42;2.22;;;24.90;70.90;;;;;;5096280;28;20188;-70
2022/08/04 13:32:04;;;;;;;2.70;2.30;;;24.90;70.80;;;;;;5114030;28;20215;-71
2022/08/04 13:34:33;;;;;;;2.58;2.30;;;24.90;70.90;;;;;;5095955;28;20214;-71
2022/08/04 13:37:02;;;;;;;2.35;2.25;;;24.90;71.00;;;;;;5096001;28;20234;-71
2022/08/04 13:39:29;;;;;;;2.20;2.00;;;24.90;70.80;;;;;;5114302;28;20204;-71
2022/08/04 13:42:03;;;;;;;1.75;1.65;;;24.90;70.50;;;;;;5113215;28;20207;-71
2022/08/04 13:44:34;;;;;;;2.50;2.30;;;24.90;70.80;;;;;;5095811;28;20183;-71
2022/08/04 13:47:18;;;;;;;2.33;1.90;;;24.90;70.70;;;;;;5095966;28;20478;-71
2022/08/04 13:50:29;;;;;;;2.60;2.40;;;24.90;70.80;;;;;;5095883;28;20168;-71
2022/08/04 13:52:58;;;;;;;3.20;2.50;;;24.90;70.90;;;;;;5113473;28;20180;-71
2022/08/04 13:55:34;;;;;;;2.28;2.17;;;24.90;70.80;;;;;;5113639;28;20217;-71
2022/08/04 13:58:22;;;;;;;2.25;2.15;;;24.90;70.80;;;;;;5095775;28;20284;-71
2022/08/04 14:01:00;;;;;;;2.22;2.13;;;25.00;70.90;;;;;;5095684;28;20369;-71
2022/08/04 14:03:39;;;;;;;1.90;1.80;;;24.90;70.70;;;;;;5095832;28;20216;-71
2022/08/04 14:06:16;;;;;;;2.35;1.92;;;24.90;70.90;;;;;;5095427;28;20218;-71